createdAt,value
2023-09-12T00:00:24.598Z,25.42
2023-09-12T00:02:51.515Z,25.47
2023-09-12T00:05:18.284Z,25.46
2023-09-12T00:07:44.902Z,25.74
2023-09-12T00:10:11.525Z,25.74
2023-09-12T00:12:38.137Z,25.80
2023-09-12T00:15:05.648Z,25.76
2023-09-12T00:17:32.334Z,25.76
2023-09-12T00:19:58.908Z,25.76
2023-09-12T00:22:25.441Z,25.51
2023-09-12T00:24:51.995Z,25.55
2023-09-12T00:27:18.593Z,25.53
2023-09-12T00:29:45.285Z,25.71
2023-09-12T00:32:11.813Z,25.67
2023-09-12T00:34:38.434Z,25.63
2023-09-12T00:37:05.722Z,25.69
2023-09-12T00:39:33.024Z,25.86
2023-09-12T00:44:26.091Z,25.54
2023-09-12T00:46:54.509Z,25.55
2023-09-12T00:49:23.548Z,25.42
2023-09-12T00:51:51.744Z,25.46
2023-09-12T00:54:18.811Z,25.60
2023-09-12T00:56:46.362Z,25.62
2023-09-12T00:59:14.373Z,25.69
2023-09-12T01:01:41.075Z,25.63
2023-09-12T01:04:14.634Z,25.70
2023-09-12T01:06:48.701Z,25.68
2023-09-12T01:09:15.458Z,25.64
2023-09-12T01:11:42.577Z,25.62
2023-09-12T01:14:09.139Z,25.56
2023-09-12T01:16:35.706Z,25.42
2023-09-12T01:19:02.766Z,25.41
2023-09-12T01:21:41.177Z,25.27
2023-09-12T01:24:07.711Z,25.09
2023-09-12T01:27:00.451Z,25.19
2023-09-12T01:29:27.863Z,25.13
2023-09-12T01:31:56.085Z,25.21
2023-09-12T01:34:22.714Z,24.98
2023-09-12T01:36:49.287Z,25.00
2023-09-12T01:39:15.869Z,25.20
2023-09-12T01:41:46.946Z,25.29
2023-09-12T01:44:15.293Z,25.11
2023-09-12T01:46:43.334Z,25.08
2023-09-12T01:49:12.042Z,24.74
2023-09-12T01:51:39.269Z,24.83
2023-09-12T01:54:08.063Z,25.04
2023-09-12T01:56:35.220Z,24.94
2023-09-12T01:59:03.200Z,24.97
2023-09-12T02:01:29.770Z,24.96
2023-09-12T02:03:56.389Z,24.88
2023-09-12T02:06:23.083Z,24.96
2023-09-12T02:08:49.591Z,24.98
2023-09-12T02:11:16.111Z,25.06
2023-09-12T02:13:42.638Z,24.87
2023-09-12T02:16:09.527Z,24.78
2023-09-12T02:18:36.298Z,24.82
2023-09-12T02:21:02.995Z,24.98
2023-09-12T02:23:29.556Z,24.94
2023-09-12T02:25:57.048Z,25.01
2023-09-12T02:28:23.629Z,24.85
2023-09-12T02:30:50.225Z,24.90
2023-09-12T02:33:16.913Z,24.84
2023-09-12T02:35:43.595Z,24.84
2023-09-12T02:38:10.260Z,24.86
2023-09-12T02:40:36.872Z,24.74
2023-09-12T02:43:03.548Z,24.53
2023-09-12T02:45:30.150Z,24.51
2023-09-12T02:47:56.820Z,24.52
2023-09-12T02:50:23.370Z,24.43
2023-09-12T02:52:49.951Z,24.32
2023-09-12T02:55:16.501Z,24.40
2023-09-12T02:57:43.100Z,24.53
2023-09-12T03:00:10.763Z,24.41
2023-09-12T03:02:37.509Z,24.29
2023-09-12T03:05:04.466Z,24.20
2023-09-12T03:07:31.645Z,24.19
2023-09-12T03:09:58.280Z,24.17
2023-09-12T03:12:24.846Z,24.19
2023-09-12T03:14:51.393Z,24.26
2023-09-12T03:17:18.044Z,24.20
2023-09-12T03:19:44.691Z,24.30
2023-09-12T03:22:11.217Z,24.45
2023-09-12T03:24:37.776Z,24.26
2023-09-12T03:27:04.708Z,24.37
2023-09-12T03:29:32.500Z,24.19
2023-09-12T03:31:59.107Z,24.22
2023-09-12T03:34:25.934Z,24.25
2023-09-12T03:36:52.430Z,24.38
2023-09-12T03:39:18.934Z,24.22
2023-09-12T03:41:45.501Z,24.23
2023-09-12T03:44:12.045Z,24.24
2023-09-12T03:46:38.654Z,24.19
2023-09-12T03:49:05.416Z,24.13
2023-09-12T03:51:32.049Z,24.15
2023-09-12T03:53:58.611Z,24.22
2023-09-12T03:56:25.139Z,24.20
2023-09-12T03:58:51.693Z,24.22
2023-09-12T04:01:18.291Z,24.22
2023-09-12T04:03:45.856Z,24.25
2023-09-12T04:06:12.561Z,24.19
2023-09-12T04:08:39.095Z,24.19
2023-09-12T04:11:05.604Z,24.17
2023-09-12T04:13:32.107Z,24.09
2023-09-12T04:15:58.829Z,24.07
2023-09-12T04:18:25.631Z,24.04
2023-09-12T04:20:52.218Z,24.06
2023-09-12T04:23:18.841Z,24.01
2023-09-12T04:25:47.352Z,23.69
2023-09-12T04:28:13.869Z,23.71
2023-09-12T04:30:41.093Z,23.69
2023-09-12T04:33:07.876Z,23.60
2023-09-12T04:35:35.346Z,23.45
2023-09-12T04:38:02.176Z,23.41
2023-09-12T04:40:28.723Z,23.39
2023-09-12T04:42:55.210Z,23.46
2023-09-12T04:45:21.920Z,23.47
2023-09-12T04:47:48.450Z,23.65
2023-09-12T04:50:15.035Z,23.74
2023-09-12T04:52:42.373Z,23.76
2023-09-12T04:55:09.264Z,23.81
2023-09-12T04:57:35.884Z,23.76
2023-09-12T05:00:02.522Z,23.90
2023-09-12T05:02:29.336Z,23.75
2023-09-12T05:04:55.990Z,23.70
2023-09-12T05:07:22.656Z,23.74
2023-09-12T05:09:49.229Z,23.68
2023-09-12T05:12:15.894Z,23.62
2023-09-12T05:14:44.799Z,23.83
2023-09-12T05:17:11.306Z,23.90
2023-09-12T05:19:37.815Z,23.89
2023-09-12T05:22:04.616Z,23.91
2023-09-12T05:24:31.261Z,23.93
2023-09-12T05:26:57.806Z,23.96
2023-09-12T05:29:24.289Z,24.11
2023-09-12T05:31:50.963Z,24.08
2023-09-12T05:34:17.688Z,24.03
2023-09-12T05:36:44.256Z,23.97
2023-09-12T05:39:10.847Z,24.03
2023-09-12T05:41:37.579Z,24.08
2023-09-12T05:44:04.917Z,24.07
2023-09-12T05:46:31.421Z,24.08
2023-09-12T05:48:58.033Z,24.17
2023-09-12T05:51:24.673Z,24.21
2023-09-12T05:53:51.158Z,24.27
2023-09-12T05:56:17.703Z,24.60
2023-09-12T05:58:44.637Z,24.50
2023-09-12T06:01:12.051Z,24.74
2023-09-12T06:03:38.847Z,24.75
2023-09-12T06:06:05.680Z,24.73
2023-09-12T06:08:32.257Z,25.03
2023-09-12T06:10:58.766Z,25.00
2023-09-12T06:13:25.993Z,25.06
2023-09-12T06:15:52.616Z,25.05
2023-09-12T06:18:20.871Z,24.88
2023-09-12T06:20:47.454Z,24.88
2023-09-12T06:23:13.984Z,24.31
2023-09-12T06:25:40.547Z,24.39
2023-09-12T06:28:10.159Z,24.33
2023-09-12T06:30:36.893Z,23.80
2023-09-12T06:33:03.658Z,24.04
2023-09-12T06:35:30.233Z,24.15
2023-09-12T06:37:57.960Z,24.22
2023-09-12T06:40:24.509Z,24.60
2023-09-12T06:42:51.192Z,24.92
2023-09-12T06:45:17.809Z,24.98
2023-09-12T06:47:44.390Z,25.11
2023-09-12T06:50:14.675Z,25.65
2023-09-12T06:52:42.820Z,25.99
2023-09-12T06:55:09.649Z,26.25
2023-09-12T06:57:36.278Z,26.35
2023-09-12T07:00:07.585Z,26.73
2023-09-12T07:02:34.513Z,26.94
2023-09-12T07:05:01.204Z,26.81
2023-09-12T07:07:27.745Z,26.80
2023-09-12T07:10:01.685Z,27.17
2023-09-12T07:12:35.287Z,27.15
2023-09-12T07:15:02.180Z,27.35
2023-09-12T07:17:29.497Z,27.76
2023-09-12T07:19:56.219Z,28.26
2023-09-12T07:22:22.756Z,28.53
2023-09-12T07:24:49.395Z,28.25
2023-09-12T07:27:16.001Z,28.14
2023-09-12T07:29:42.507Z,28.54
2023-09-12T07:32:09.066Z,28.82
2023-09-12T07:34:35.605Z,29.06
2023-09-12T07:37:02.150Z,29.25
2023-09-12T07:39:28.706Z,29.56
2023-09-12T07:41:55.374Z,30.31
2023-09-12T07:44:22.057Z,31.16
2023-09-12T07:46:48.589Z,31.31
2023-09-12T07:49:15.096Z,31.54
2023-09-12T07:51:41.608Z,31.86
2023-09-12T07:54:08.123Z,31.93
2023-09-12T07:56:34.630Z,32.64
2023-09-12T07:59:01.110Z,33.02
2023-09-12T08:01:28.525Z,33.19
2023-09-12T08:03:55.757Z,33.22
2023-09-12T08:06:25.166Z,33.64
2023-09-12T08:08:51.802Z,34.23
2023-09-12T08:11:18.366Z,34.44
2023-09-12T08:13:47.155Z,34.66
2023-09-12T08:16:13.742Z,34.13
2023-09-12T08:18:40.320Z,33.68
2023-09-12T08:21:07.040Z,34.56
2023-09-12T08:23:33.675Z,34.70
2023-09-12T08:26:00.815Z,34.63
2023-09-12T08:28:27.396Z,35.10
2023-09-12T08:30:53.977Z,35.81
2023-09-12T08:33:21.313Z,36.11
2023-09-12T08:35:50.682Z,36.41
2023-09-12T08:38:17.470Z,37.10
2023-09-12T08:40:51.368Z,37.08
2023-09-12T08:43:18.292Z,37.50
2023-09-12T08:45:45.970Z,38.34
2023-09-12T08:48:13.913Z,38.25
2023-09-12T08:50:40.583Z,38.22
2023-09-12T08:53:08.893Z,38.86
2023-09-12T08:55:37.119Z,39.23
2023-09-12T08:58:05.918Z,38.88
2023-09-12T09:00:32.953Z,39.84
2023-09-12T09:03:00.338Z,38.59
2023-09-12T09:05:28.778Z,37.92
2023-09-12T09:07:55.986Z,38.03
2023-09-12T09:10:34.723Z,39.59
2023-09-12T09:13:11.031Z,40.31
2023-09-12T09:15:39.137Z,40.54
2023-09-12T09:18:07.006Z,40.69
2023-09-12T09:20:36.061Z,41.31
2023-09-12T09:23:07.310Z,42.02
2023-09-12T09:25:35.067Z,41.55
2023-09-12T09:28:06.171Z,41.43
2023-09-12T09:30:49.920Z,41.58
2023-09-12T09:33:16.900Z,42.16
2023-09-12T09:35:47.559Z,40.60
2023-09-12T09:38:17.523Z,40.22
2023-09-12T09:40:45.657Z,40.95
2023-09-12T09:43:12.786Z,41.24
2023-09-12T09:45:47.420Z,42.04
2023-09-12T09:48:25.830Z,41.64
2023-09-12T09:50:53.910Z,40.42
2023-09-12T09:53:30.511Z,41.13
2023-09-12T09:56:12.571Z,41.88
2023-09-12T09:58:53.784Z,42.30
2023-09-12T10:01:22.830Z,41.38
2023-09-12T10:03:51.360Z,39.46
2023-09-12T10:06:19.836Z,40.15
2023-09-12T10:08:51.188Z,41.14
2023-09-12T10:11:19.686Z,41.72
2023-09-12T10:13:50.167Z,42.62
2023-09-12T10:16:17.707Z,42.86
2023-09-12T10:19:08.097Z,42.94
2023-09-12T10:21:36.232Z,42.53
2023-09-12T10:24:04.868Z,42.51
2023-09-12T10:26:35.845Z,42.68
2023-09-12T10:29:03.907Z,42.84
2023-09-12T10:31:33.032Z,42.92
2023-09-12T10:34:01.164Z,42.21
2023-09-12T10:36:28.084Z,42.29
2023-09-12T10:38:56.199Z,42.97
2023-09-12T10:41:25.177Z,43.49
2023-09-12T10:43:54.955Z,43.84
2023-09-12T10:46:22.388Z,43.21
2023-09-12T10:48:49.280Z,43.02
2023-09-12T10:51:19.133Z,42.82
2023-09-12T10:53:49.812Z,41.40
2023-09-12T10:56:19.333Z,39.93
2023-09-12T10:59:13.652Z,40.79
2023-09-12T11:01:46.713Z,40.90
2023-09-12T11:04:28.429Z,40.91
2023-09-12T11:06:56.537Z,41.93
2023-09-12T11:09:26.850Z,42.89
2023-09-12T11:12:11.086Z,44.48
2023-09-12T11:14:38.910Z,44.48
2023-09-12T11:17:08.795Z,43.47
2023-09-12T11:19:52.966Z,44.30
2023-09-12T11:22:28.763Z,43.09
2023-09-12T11:24:59.708Z,44.65
2023-09-12T11:28:01.393Z,43.55
2023-09-12T11:30:32.064Z,42.44
2023-09-12T11:33:01.214Z,42.13
2023-09-12T11:35:30.323Z,42.03
2023-09-12T11:38:01.174Z,41.39
2023-09-12T11:40:44.854Z,41.92
2023-09-12T11:43:28.240Z,41.73
2023-09-12T11:45:57.295Z,43.75
2023-09-12T11:48:24.015Z,43.04
2023-09-12T11:50:53.537Z,44.28
2023-09-12T11:53:26.959Z,44.57
2023-09-12T11:55:59.105Z,42.40
2023-09-12T11:58:26.615Z,42.68
2023-09-12T12:00:55.267Z,43.20
2023-09-12T12:03:23.664Z,41.64
2023-09-12T12:05:51.350Z,42.09
2023-09-12T12:10:53.168Z,43.01
2023-09-12T12:13:21.292Z,43.60
2023-09-12T12:15:48.260Z,43.52
2023-09-12T12:18:15.444Z,41.66
2023-09-12T12:20:43.105Z,42.91
2023-09-12T12:23:09.825Z,44.61
2023-09-12T12:25:36.874Z,44.37
2023-09-12T12:28:05.080Z,44.76
2023-09-12T12:30:33.865Z,45.02
2023-09-12T12:33:15.734Z,45.48
2023-09-12T12:35:53.997Z,45.18
2023-09-12T12:38:21.668Z,45.64
2023-09-12T12:40:50.277Z,45.34
2023-09-12T12:43:21.809Z,45.16
2023-09-12T12:45:58.404Z,45.59
2023-09-12T12:48:35.862Z,44.56
2023-09-12T12:51:24.060Z,43.96
2023-09-12T12:53:55.450Z,44.06
2023-09-12T12:56:24.532Z,43.05
2023-09-12T12:58:58.173Z,43.16
2023-09-12T13:01:25.725Z,41.58
2023-09-12T13:03:52.639Z,41.58
2023-09-12T13:06:19.775Z,41.88
2023-09-12T13:08:47.933Z,42.94
2023-09-12T13:11:17.889Z,42.69
2023-09-12T13:13:46.029Z,43.46
2023-09-12T13:16:14.365Z,44.20
2023-09-12T13:18:41.665Z,44.39
2023-09-12T13:21:08.607Z,43.99
2023-09-12T13:23:37.884Z,43.81
2023-09-12T13:26:05.318Z,43.74
2023-09-12T13:28:31.813Z,44.24
2023-09-12T13:31:01.277Z,44.98
2023-09-12T13:33:28.175Z,45.44
2023-09-12T13:35:54.762Z,43.23
2023-09-12T13:38:21.512Z,42.03
2023-09-12T13:40:48.124Z,42.26
2023-09-12T13:43:15.310Z,40.80
2023-09-12T13:45:42.233Z,41.07
2023-09-12T13:48:09.554Z,41.68
2023-09-12T13:50:36.646Z,41.08
2023-09-12T13:53:11.222Z,41.21
2023-09-12T13:56:18.323Z,40.84
2023-09-12T13:58:28.859Z,41.34
2023-09-12T14:00:57.360Z,41.23
2023-09-12T14:03:24.361Z,41.79
2023-09-12T14:05:51.658Z,42.23
2023-09-12T14:08:19.476Z,42.82
2023-09-12T14:10:46.653Z,43.06
2023-09-12T14:15:43.635Z,42.37
2023-09-12T14:18:11.277Z,41.85
2023-09-12T14:20:38.042Z,41.74
2023-09-12T14:23:06.180Z,41.12
2023-09-12T14:25:33.465Z,41.28
2023-09-12T14:28:00.358Z,41.00
2023-09-12T14:30:35.219Z,40.36
2023-09-12T14:33:04.106Z,39.81
2023-09-12T14:35:30.800Z,40.02
2023-09-12T14:37:57.446Z,39.58
2023-09-12T14:40:24.960Z,39.60
2023-09-12T14:42:51.682Z,39.01
2023-09-12T14:45:18.529Z,39.13
2023-09-12T14:47:45.132Z,38.95
2023-09-12T14:50:11.776Z,39.11
2023-09-12T14:52:39.513Z,38.88
2023-09-12T14:55:09.565Z,38.83
2023-09-12T14:57:36.205Z,38.42
2023-09-12T15:00:02.954Z,38.51
2023-09-12T15:02:32.640Z,38.21
2023-09-12T15:05:04.985Z,38.42
2023-09-12T15:07:31.725Z,38.45
2023-09-12T15:09:58.659Z,38.22
2023-09-12T15:12:26.043Z,37.60
2023-09-12T15:14:52.966Z,37.35
2023-09-12T15:17:19.888Z,36.81
2023-09-12T15:19:46.548Z,36.63
2023-09-12T15:22:13.549Z,36.85
2023-09-12T15:24:41.844Z,36.13
2023-09-12T15:27:08.449Z,35.46
2023-09-12T15:29:35.583Z,35.38
2023-09-12T15:32:02.259Z,35.40
2023-09-12T15:34:28.870Z,35.50
2023-09-12T15:37:22.306Z,35.70
2023-09-12T15:39:49.748Z,35.87
2023-09-12T15:42:32.786Z,35.67
2023-09-12T15:45:03.544Z,35.70
2023-09-12T15:47:30.998Z,35.64
2023-09-12T15:49:57.794Z,35.70
2023-09-12T15:52:24.558Z,35.61
2023-09-12T15:54:53.286Z,35.70
2023-09-12T15:57:20.309Z,35.66
2023-09-12T15:59:46.865Z,35.67
2023-09-12T16:02:13.864Z,35.65
2023-09-12T16:04:40.629Z,35.63
2023-09-12T16:07:07.350Z,35.57
2023-09-12T16:09:34.019Z,35.47
2023-09-12T16:12:00.536Z,35.17
2023-09-12T16:14:27.152Z,35.04
2023-09-12T16:16:53.857Z,34.96
2023-09-12T16:19:20.402Z,34.83
2023-09-12T16:21:47.180Z,34.99
2023-09-12T16:24:13.774Z,34.61
2023-09-12T16:26:40.281Z,34.70
2023-09-12T16:29:07.026Z,34.50
2023-09-12T16:31:33.741Z,34.48
2023-09-12T16:34:00.499Z,34.41
2023-09-12T16:36:27.372Z,34.56
2023-09-12T16:38:54.646Z,34.63
2023-09-12T16:41:21.274Z,34.54
2023-09-12T16:43:47.868Z,34.37
2023-09-12T16:46:14.539Z,34.05
2023-09-12T16:48:41.861Z,33.84
2023-09-12T16:51:08.358Z,33.86
2023-09-12T16:53:34.820Z,33.55
2023-09-12T16:56:01.357Z,33.57
2023-09-12T16:58:28.070Z,33.43
2023-09-12T17:00:55.093Z,33.33
2023-09-12T17:03:21.888Z,33.25
2023-09-12T17:05:48.918Z,33.16
2023-09-12T17:08:15.599Z,33.03
2023-09-12T17:10:43.144Z,32.79
2023-09-12T17:13:09.909Z,32.62
2023-09-12T17:15:38.711Z,32.50
2023-09-12T17:18:06.374Z,32.46
2023-09-12T17:20:34.086Z,32.24
2023-09-12T17:23:00.693Z,32.15
2023-09-12T17:25:27.257Z,31.93
2023-09-12T17:27:53.866Z,31.95
2023-09-12T17:30:20.652Z,32.02
2023-09-12T17:32:47.273Z,31.79
2023-09-12T17:35:13.970Z,31.70
2023-09-12T17:37:40.937Z,31.80
2023-09-12T17:40:08.367Z,31.73
2023-09-12T17:42:35.734Z,31.67
2023-09-12T17:45:02.496Z,31.56
2023-09-12T17:47:29.145Z,31.60
2023-09-12T17:49:57.352Z,31.40
2023-09-12T17:52:23.985Z,31.29
2023-09-12T17:54:50.555Z,31.29
2023-09-12T17:57:17.151Z,31.20
2023-09-12T17:59:45.314Z,31.17
2023-09-12T18:02:12.297Z,31.35
2023-09-12T18:04:40.074Z,31.36
2023-09-12T18:07:07.010Z,31.23
2023-09-12T18:09:35.432Z,31.18
2023-09-12T18:12:02.147Z,31.12
2023-09-12T18:14:28.648Z,30.86
2023-09-12T18:16:55.525Z,30.65
2023-09-12T18:19:23.490Z,30.47
2023-09-12T18:21:50.573Z,30.35
2023-09-12T18:24:18.570Z,30.29
2023-09-12T18:26:46.090Z,30.31
2023-09-12T18:29:18.956Z,30.21
2023-09-12T18:31:45.631Z,30.25
2023-09-12T18:34:12.271Z,30.09
2023-09-12T18:36:39.195Z,29.98
2023-09-12T18:39:08.106Z,29.93
2023-09-12T18:41:35.618Z,29.88
2023-09-12T18:44:03.192Z,29.93
2023-09-12T18:46:29.908Z,29.93
2023-09-12T18:48:56.636Z,29.83
2023-09-12T18:51:23.540Z,29.66
2023-09-12T18:53:50.081Z,29.65
2023-09-12T18:56:16.634Z,29.78
2023-09-12T18:58:43.331Z,30.02
2023-09-12T19:01:10.037Z,29.70
2023-09-12T19:03:36.936Z,29.92
2023-09-12T19:06:04.832Z,30.17
2023-09-12T19:08:31.441Z,30.03
2023-09-12T19:10:58.154Z,29.99
2023-09-12T19:13:24.649Z,29.79
2023-09-12T19:15:51.239Z,29.82
2023-09-12T19:18:17.802Z,29.78
2023-09-12T19:20:44.374Z,29.75
2023-09-12T19:23:10.977Z,29.70
2023-09-12T19:25:41.136Z,29.72
2023-09-12T19:28:10.111Z,29.74
2023-09-12T19:30:39.939Z,29.63
2023-09-12T19:33:09.634Z,29.79
2023-09-12T19:35:41.838Z,29.78
2023-09-12T19:38:08.828Z,29.68
2023-09-12T19:40:37.348Z,29.74
2023-09-12T19:43:04.364Z,29.64
2023-09-12T19:45:31.091Z,29.60
2023-09-12T19:48:01.489Z,29.63
2023-09-12T19:50:31.692Z,29.40
2023-09-12T19:52:58.194Z,29.10
2023-09-12T19:55:26.223Z,29.16
2023-09-12T19:57:53.292Z,29.08
2023-09-12T20:00:19.926Z,29.18
2023-09-12T20:02:47.579Z,29.48
2023-09-12T20:05:14.208Z,29.45
2023-09-12T20:07:40.732Z,29.50
2023-09-12T20:10:07.637Z,29.54
2023-09-12T20:12:34.453Z,29.42
2023-09-12T20:15:01.265Z,29.39
2023-09-12T20:17:28.047Z,29.40
2023-09-12T20:19:54.967Z,29.39
2023-09-12T20:22:21.723Z,29.32
2023-09-12T20:24:48.338Z,29.28
2023-09-12T20:27:14.892Z,29.33
2023-09-12T20:29:41.467Z,29.17
2023-09-12T20:32:08.171Z,29.07
2023-09-12T20:34:35.871Z,29.04
2023-09-12T20:37:05.885Z,29.03
2023-09-12T20:39:33.958Z,29.17
2023-09-12T20:42:01.393Z,29.18
2023-09-12T20:44:28.424Z,29.06
2023-09-12T20:46:55.735Z,29.36
2023-09-12T20:49:22.467Z,29.27
2023-09-12T20:51:50.360Z,29.06
2023-09-12T20:54:18.617Z,29.05
2023-09-12T20:56:48.914Z,28.96
2023-09-12T20:59:15.766Z,28.98
2023-09-12T21:01:42.444Z,28.92
2023-09-12T21:04:09.245Z,29.04
2023-09-12T21:06:36.048Z,29.01
2023-09-12T21:09:03.811Z,29.06
2023-09-12T21:11:30.502Z,28.60
2023-09-12T21:13:57.074Z,28.47
2023-09-12T21:16:23.695Z,28.43
2023-09-12T21:18:50.301Z,28.01
2023-09-12T21:21:16.944Z,27.98
2023-09-12T21:23:43.653Z,27.96
2023-09-12T21:26:10.434Z,27.95
2023-09-12T21:28:36.971Z,27.82
2023-09-12T21:31:05.020Z,27.74
2023-09-12T21:33:31.712Z,27.66
2023-09-12T21:35:58.279Z,27.67
2023-09-12T21:38:24.835Z,27.76
2023-09-12T21:40:51.399Z,27.74
2023-09-12T21:43:17.932Z,27.63
2023-09-12T21:45:44.633Z,27.43
2023-09-12T21:48:11.426Z,27.37
2023-09-12T21:50:38.067Z,27.20
2023-09-12T21:53:05.609Z,27.05
2023-09-12T21:55:35.677Z,26.95
2023-09-12T21:58:03.631Z,26.67
2023-09-12T22:00:32.211Z,26.35
2023-09-12T22:02:59.584Z,26.23
2023-09-12T22:05:26.874Z,25.98
2023-09-12T22:07:53.572Z,25.88
2023-09-12T22:10:21.241Z,25.91
2023-09-12T22:12:48.264Z,25.76
2023-09-12T22:15:17.092Z,26.01
2023-09-12T22:17:43.874Z,25.99
2023-09-12T22:20:14.035Z,25.98
2023-09-12T22:22:40.970Z,25.88
2023-09-12T22:25:07.850Z,25.87
2023-09-12T22:27:34.618Z,26.00
2023-09-12T22:30:01.302Z,26.13
2023-09-12T22:32:28.712Z,26.04
2023-09-12T22:34:55.255Z,25.86
2023-09-12T22:37:21.817Z,25.84
2023-09-12T22:39:49.017Z,25.78
2023-09-12T22:42:15.815Z,25.71
2023-09-12T22:44:43.311Z,25.65
2023-09-12T22:47:09.889Z,25.51
2023-09-12T22:49:36.716Z,25.57
2023-09-12T22:52:04.534Z,25.64
2023-09-12T22:54:31.358Z,25.57
2023-09-12T22:56:57.918Z,25.56
2023-09-12T22:59:24.550Z,25.40
2023-09-12T23:01:51.266Z,25.71
2023-09-12T23:04:18.049Z,25.83
2023-09-12T23:06:45.637Z,26.02
2023-09-12T23:09:12.324Z,26.12
2023-09-12T23:11:38.901Z,25.82
2023-09-12T23:14:05.475Z,25.71
2023-09-12T23:16:32.396Z,25.67
2023-09-12T23:18:59.106Z,25.82
2023-09-12T23:21:25.618Z,25.66
2023-09-12T23:23:52.268Z,25.33
2023-09-12T23:26:19.835Z,25.45
2023-09-12T23:28:46.397Z,25.63
2023-09-12T23:31:13.032Z,25.30
2023-09-12T23:33:39.697Z,25.33
2023-09-12T23:36:06.322Z,25.40
2023-09-12T23:38:32.918Z,25.45
2023-09-12T23:40:59.414Z,25.04
2023-09-12T23:43:25.952Z,24.78
2023-09-12T23:45:52.620Z,24.60
2023-09-12T23:48:19.176Z,24.69
2023-09-12T23:50:45.722Z,24.78
2023-09-12T23:53:12.285Z,24.88
2023-09-12T23:55:38.841Z,24.75
2023-09-12T23:58:05.413Z,24.75
